sensor_id;sensor_type;location;lat;lon;timestamp;pressure;altitude;pressure_sealevel;temperature;humidity
72465;BME280;60471;52.150;4.508;2023-07-30T00:02:08;100573.56;;;19.53;73.64
72465;BME280;60471;52.150;4.508;2023-07-30T00:04:34;100573.69;;;19.51;73.70
72465;BME280;60471;52.150;4.508;2023-07-30T00:07:00;100581.41;;;19.35;73.99
72465;BME280;60471;52.150;4.508;2023-07-30T00:09:26;100584.66;;;19.38;73.92
72465;BME280;60471;52.150;4.508;2023-07-30T00:11:53;100596.75;;;19.33;74.31
72465;BME280;60471;52.150;4.508;2023-07-30T00:14:19;100579.75;;;19.44;74.16
72465;BME280;60471;52.150;4.508;2023-07-30T00:16:45;100580.84;;;19.41;74.15
72465;BME280;60471;52.150;4.508;2023-07-30T00:19:11;100579.41;;;19.58;73.51
72465;BME280;60471;52.150;4.508;2023-07-30T00:21:38;100581.84;;;19.40;74.54
72465;BME280;60471;52.150;4.508;2023-07-30T00:24:04;100580.19;;;19.49;73.81
72465;BME280;60471;52.150;4.508;2023-07-30T00:26:30;100578.19;;;19.51;74.29
72465;BME280;60471;52.150;4.508;2023-07-30T00:28:56;100580.03;;;19.50;74.00
72465;BME280;60471;52.150;4.508;2023-07-30T00:31:23;100575.63;;;19.80;72.67
72465;BME280;60471;52.150;4.508;2023-07-30T00:33:49;100580.53;;;19.75;72.75
72465;BME280;60471;52.150;4.508;2023-07-30T00:36:15;100591.94;;;19.67;73.34
72465;BME280;60471;52.150;4.508;2023-07-30T00:38:41;100591.25;;;19.75;72.92
72465;BME280;60471;52.150;4.508;2023-07-30T00:41:07;100592.63;;;19.59;72.95
72465;BME280;60471;52.150;4.508;2023-07-30T00:43:34;100609.13;;;19.64;73.08
72465;BME280;60471;52.150;4.508;2023-07-30T00:46:00;100599.13;;;19.66;73.08
72465;BME280;60471;52.150;4.508;2023-07-30T00:48:26;100597.44;;;19.65;73.35
72465;BME280;60471;52.150;4.508;2023-07-30T00:50:52;100602.78;;;19.75;72.65
72465;BME280;60471;52.150;4.508;2023-07-30T00:53:21;100601.44;;;19.50;73.64
72465;BME280;60471;52.150;4.508;2023-07-30T00:55:49;100617.00;;;19.56;73.38
72465;BME280;60471;52.150;4.508;2023-07-30T00:58:16;100594.03;;;19.63;73.27
72465;BME280;60471;52.150;4.508;2023-07-30T01:00:46;100598.72;;;19.81;72.36
72465;BME280;60471;52.150;4.508;2023-07-30T01:03:13;100606.94;;;19.49;73.48
72465;BME280;60471;52.150;4.508;2023-07-30T01:05:39;100608.34;;;19.53;73.80
72465;BME280;60471;52.150;4.508;2023-07-30T01:08:06;100601.84;;;19.76;73.21
72465;BME280;60471;52.150;4.508;2023-07-30T01:10:32;100603.13;;;19.51;73.78
72465;BME280;60471;52.150;4.508;2023-07-30T01:13:01;100604.59;;;19.55;73.75
72465;BME280;60471;52.150;4.508;2023-07-30T01:15:30;100601.06;;;19.55;74.00
72465;BME280;60471;52.150;4.508;2023-07-30T01:17:57;100616.59;;;19.61;73.95
72465;BME280;60471;52.150;4.508;2023-07-30T01:20:23;100598.16;;;19.67;74.21
72465;BME280;60471;52.150;4.508;2023-07-30T01:22:50;100610.66;;;19.57;74.70
72465;BME280;60471;52.150;4.508;2023-07-30T01:25:17;100601.97;;;19.65;73.88
72465;BME280;60471;52.150;4.508;2023-07-30T01:27:51;100611.78;;;19.64;74.34
72465;BME280;60471;52.150;4.508;2023-07-30T01:30:27;100606.72;;;19.61;74.87
72465;BME280;60471;52.150;4.508;2023-07-30T01:32:56;100598.38;;;19.55;74.78
72465;BME280;60471;52.150;4.508;2023-07-30T01:35:26;100628.97;;;19.62;74.61
72465;BME280;60471;52.150;4.508;2023-07-30T01:37:54;100617.78;;;19.47;75.08
72465;BME280;60471;52.150;4.508;2023-07-30T01:40:21;100613.97;;;19.50;75.25
72465;BME280;60471;52.150;4.508;2023-07-30T01:42:49;100605.03;;;19.60;75.19
72465;BME280;60471;52.150;4.508;2023-07-30T01:45:15;100614.78;;;19.71;74.49
72465;BME280;60471;52.150;4.508;2023-07-30T01:47:42;100613.75;;;19.62;74.61
72465;BME280;60471;52.150;4.508;2023-07-30T01:50:08;100615.66;;;19.51;74.78
72465;BME280;60471;52.150;4.508;2023-07-30T01:52:35;100622.84;;;19.50;75.20
72465;BME280;60471;52.150;4.508;2023-07-30T01:55:01;100635.41;;;19.50;75.22
72465;BME280;60471;52.150;4.508;2023-07-30T01:57:28;100625.59;;;19.60;74.44
72465;BME280;60471;52.150;4.508;2023-07-30T01:59:54;100616.03;;;19.57;74.51
72465;BME280;60471;52.150;4.508;2023-07-30T02:02:20;100619.97;;;19.63;74.63
72465;BME280;60471;52.150;4.508;2023-07-30T02:04:46;100619.75;;;19.76;73.90
72465;BME280;60471;52.150;4.508;2023-07-30T02:07:12;100612.34;;;19.58;74.28
72465;BME280;60471;52.150;4.508;2023-07-30T02:09:39;100606.41;;;19.55;74.31
72465;BME280;60471;52.150;4.508;2023-07-30T02:12:05;100616.91;;;19.67;74.33
72465;BME280;60471;52.150;4.508;2023-07-30T02:14:32;100622.66;;;19.73;73.85
72465;BME280;60471;52.150;4.508;2023-07-30T02:16:58;100610.56;;;19.78;73.85
72465;BME280;60471;52.150;4.508;2023-07-30T02:19:24;100618.75;;;19.77;73.88
72465;BME280;60471;52.150;4.508;2023-07-30T02:21:51;100611.84;;;19.84;73.38
72465;BME280;60471;52.150;4.508;2023-07-30T02:24:17;100617.47;;;19.81;73.67
72465;BME280;60471;52.150;4.508;2023-07-30T02:26:43;100614.97;;;19.89;73.14
72465;BME280;60471;52.150;4.508;2023-07-30T02:29:09;100606.47;;;19.74;73.89
72465;BME280;60471;52.150;4.508;2023-07-30T02:31:36;100596.19;;;19.79;73.27
72465;BME280;60471;52.150;4.508;2023-07-30T02:34:02;100601.81;;;19.66;74.09
72465;BME280;60471;52.150;4.508;2023-07-30T02:36:28;100609.56;;;19.69;73.71
72465;BME280;60471;52.150;4.508;2023-07-30T02:38:54;100610.38;;;19.60;73.82
72465;BME280;60471;52.150;4.508;2023-07-30T02:41:21;100600.53;;;19.61;73.64
72465;BME280;60471;52.150;4.508;2023-07-30T02:43:47;100600.97;;;19.85;72.75
72465;BME280;60471;52.150;4.508;2023-07-30T02:46:13;100606.75;;;19.81;72.48
72465;BME280;60471;52.150;4.508;2023-07-30T02:48:39;100613.97;;;19.80;71.82
72465;BME280;60471;52.150;4.508;2023-07-30T02:51:06;100607.75;;;19.80;71.43
72465;BME280;60471;52.150;4.508;2023-07-30T02:53:32;100600.94;;;19.56;71.12
72465;BME280;60471;52.150;4.508;2023-07-30T02:55:58;100601.09;;;19.74;70.09
72465;BME280;60471;52.150;4.508;2023-07-30T02:58:24;100599.28;;;19.84;69.69
72465;BME280;60471;52.150;4.508;2023-07-30T03:00:50;100599.13;;;19.66;69.22
72465;BME280;60471;52.150;4.508;2023-07-30T03:03:17;100603.06;;;19.62;69.26
72465;BME280;60471;52.150;4.508;2023-07-30T03:05:43;100599.41;;;19.73;68.12
72465;BME280;60471;52.150;4.508;2023-07-30T03:08:09;100606.94;;;19.98;67.49
72465;BME280;60471;52.150;4.508;2023-07-30T03:10:38;100603.41;;;20.08;66.26
72465;BME280;60471;52.150;4.508;2023-07-30T03:13:05;100603.41;;;19.98;66.60
72465;BME280;60471;52.150;4.508;2023-07-30T03:15:31;100595.63;;;19.85;66.75
72465;BME280;60471;52.150;4.508;2023-07-30T03:17:57;100607.59;;;19.81;66.82
72465;BME280;60471;52.150;4.508;2023-07-30T03:20:24;100618.06;;;19.94;66.56
72465;BME280;60471;52.150;4.508;2023-07-30T03:22:50;100619.16;;;19.82;65.66
72465;BME280;60471;52.150;4.508;2023-07-30T03:25:17;100608.03;;;19.77;65.04
72465;BME280;60471;52.150;4.508;2023-07-30T03:27:43;100605.50;;;19.85;63.85
72465;BME280;60471;52.150;4.508;2023-07-30T03:30:09;100601.94;;;19.75;63.38
72465;BME280;60471;52.150;4.508;2023-07-30T03:32:36;100599.03;;;19.87;62.64
72465;BME280;60471;52.150;4.508;2023-07-30T03:35:03;100607.88;;;19.68;62.57
72465;BME280;60471;52.150;4.508;2023-07-30T03:37:29;100602.72;;;19.46;62.96
72465;BME280;60471;52.150;4.508;2023-07-30T03:39:55;100607.94;;;19.48;63.62
72465;BME280;60471;52.150;4.508;2023-07-30T03:42:22;100602.34;;;19.60;62.83
72465;BME280;60471;52.150;4.508;2023-07-30T03:44:48;100598.56;;;19.73;61.69
72465;BME280;60471;52.150;4.508;2023-07-30T03:47:15;100610.31;;;19.51;61.54
72465;BME280;60471;52.150;4.508;2023-07-30T03:49:41;100615.41;;;19.54;61.65
72465;BME280;60471;52.150;4.508;2023-07-30T03:52:07;100609.47;;;19.50;60.38
72465;BME280;60471;52.150;4.508;2023-07-30T03:54:33;100609.72;;;19.37;59.49
72465;BME280;60471;52.150;4.508;2023-07-30T03:57:00;100616.88;;;19.27;58.35
72465;BME280;60471;52.150;4.508;2023-07-30T03:59:26;100613.09;;;19.39;57.16
72465;BME280;60471;52.150;4.508;2023-07-30T04:01:54;100643.25;;;19.41;56.64
72465;BME280;60471;52.150;4.508;2023-07-30T04:04:20;100618.06;;;19.44;56.50
72465;BME280;60471;52.150;4.508;2023-07-30T04:06:46;100616.06;;;19.36;56.66
72465;BME280;60471;52.150;4.508;2023-07-30T04:09:13;100615.09;;;19.47;55.94
72465;BME280;60471;52.150;4.508;2023-07-30T04:11:39;100623.66;;;19.41;56.96
72465;BME280;60471;52.150;4.508;2023-07-30T04:14:05;100615.53;;;19.52;56.07
72465;BME280;60471;52.150;4.508;2023-07-30T04:16:33;100612.66;;;19.65;56.25
72465;BME280;60471;52.150;4.508;2023-07-30T04:19:00;100618.16;;;19.42;56.71
72465;BME280;60471;52.150;4.508;2023-07-30T04:21:26;100609.78;;;19.17;57.19
72465;BME280;60471;52.150;4.508;2023-07-30T04:23:52;100618.22;;;19.52;56.84
72465;BME280;60471;52.150;4.508;2023-07-30T04:26:18;100621.31;;;19.48;56.87
72465;BME280;60471;52.150;4.508;2023-07-30T04:28:44;100615.59;;;19.31;57.07
72465;BME280;60471;52.150;4.508;2023-07-30T04:31:11;100624.25;;;19.45;56.84
72465;BME280;60471;52.150;4.508;2023-07-30T04:33:37;100615.81;;;19.49;56.95
72465;BME280;60471;52.150;4.508;2023-07-30T04:36:03;100620.81;;;19.63;56.81
72465;BME280;60471;52.150;4.508;2023-07-30T04:38:30;100614.91;;;19.69;56.24
72465;BME280;60471;52.150;4.508;2023-07-30T04:40:59;100624.38;;;19.83;56.19
72465;BME280;60471;52.150;4.508;2023-07-30T04:43:25;100621.09;;;19.60;57.11
72465;BME280;60471;52.150;4.508;2023-07-30T04:45:51;100624.09;;;19.77;56.25
72465;BME280;60471;52.150;4.508;2023-07-30T04:48:18;100640.66;;;19.61;56.95
72465;BME280;60471;52.150;4.508;2023-07-30T04:50:44;100618.88;;;19.65;56.85
72465;BME280;60471;52.150;4.508;2023-07-30T04:53:10;100640.41;;;19.74;57.02
72465;BME280;60471;52.150;4.508;2023-07-30T04:55:36;100624.25;;;19.45;57.73
72465;BME280;60471;52.150;4.508;2023-07-30T04:58:03;100629.53;;;19.56;57.62
72465;BME280;60471;52.150;4.508;2023-07-30T05:00:29;100626.94;;;19.45;58.14
72465;BME280;60471;52.150;4.508;2023-07-30T05:02:56;100629.47;;;19.77;57.58
72465;BME280;60471;52.150;4.508;2023-07-30T05:05:22;100630.53;;;19.64;58.10
72465;BME280;60471;52.150;4.508;2023-07-30T05:07:48;100623.94;;;19.68;58.02
72465;BME280;60471;52.150;4.508;2023-07-30T05:10:14;100631.59;;;19.52;58.62
72465;BME280;60471;52.150;4.508;2023-07-30T05:12:43;100629.97;;;19.61;58.55
72465;BME280;60471;52.150;4.508;2023-07-30T05:15:09;100625.47;;;19.61;58.59
72465;BME280;60471;52.150;4.508;2023-07-30T05:17:35;100626.09;;;19.44;59.19
72465;BME280;60471;52.150;4.508;2023-07-30T05:20:02;100630.31;;;19.47;59.18
72465;BME280;60471;52.150;4.508;2023-07-30T05:22:28;100631.66;;;19.62;58.88
72465;BME280;60471;52.150;4.508;2023-07-30T05:24:54;100640.28;;;19.35;59.40
72465;BME280;60471;52.150;4.508;2023-07-30T05:27:20;100640.84;;;19.69;59.13
72465;BME280;60471;52.150;4.508;2023-07-30T05:29:47;100633.78;;;19.58;59.04
72465;BME280;60471;52.150;4.508;2023-07-30T05:32:13;100630.28;;;19.67;58.89
72465;BME280;60471;52.150;4.508;2023-07-30T05:34:39;100633.13;;;19.76;58.57
72465;BME280;60471;52.150;4.508;2023-07-30T05:37:05;100641.03;;;20.06;57.89
72465;BME280;60471;52.150;4.508;2023-07-30T05:39:31;100625.69;;;19.98;58.43
72465;BME280;60471;52.150;4.508;2023-07-30T05:41:58;100630.56;;;19.74;59.47
72465;BME280;60471;52.150;4.508;2023-07-30T05:44:24;100621.19;;;19.99;59.48
72465;BME280;60471;52.150;4.508;2023-07-30T05:46:50;100619.03;;;19.83;59.22
72465;BME280;60471;52.150;4.508;2023-07-30T05:49:16;100620.72;;;19.94;59.10
72465;BME280;60471;52.150;4.508;2023-07-30T05:51:43;100623.59;;;20.12;59.22
72465;BME280;60471;52.150;4.508;2023-07-30T05:54:09;100621.16;;;19.80;59.82
72465;BME280;60471;52.150;4.508;2023-07-30T05:56:35;100622.44;;;20.05;59.18
72465;BME280;60471;52.150;4.508;2023-07-30T05:59:01;100623.25;;;19.86;59.58
72465;BME280;60471;52.150;4.508;2023-07-30T06:01:27;100628.38;;;19.98;59.29
72465;BME280;60471;52.150;4.508;2023-07-30T06:03:54;100628.66;;;20.15;58.93
72465;BME280;60471;52.150;4.508;2023-07-30T06:06:20;100643.16;;;20.03;59.25
72465;BME280;60471;52.150;4.508;2023-07-30T06:08:55;100638.78;;;19.92;60.03
72465;BME280;60471;52.150;4.508;2023-07-30T06:11:22;100630.75;;;19.92;60.07
72465;BME280;60471;52.150;4.508;2023-07-30T06:13:48;100620.06;;;20.21;59.01
72465;BME280;60471;52.150;4.508;2023-07-30T06:16:14;100627.50;;;19.88;60.15
72465;BME280;60471;52.150;4.508;2023-07-30T06:18:42;100636.22;;;19.81;60.24
72465;BME280;60471;52.150;4.508;2023-07-30T06:21:08;100640.00;;;19.68;60.52
72465;BME280;60471;52.150;4.508;2023-07-30T06:23:35;100645.63;;;19.65;60.51
72465;BME280;60471;52.150;4.508;2023-07-30T06:26:01;100638.63;;;19.84;60.17
72465;BME280;60471;52.150;4.508;2023-07-30T06:28:27;100632.56;;;19.91;60.08
72465;BME280;60471;52.150;4.508;2023-07-30T06:30:53;100640.06;;;19.97;59.70
72465;BME280;60471;52.150;4.508;2023-07-30T06:33:19;100643.16;;;20.03;58.90
72465;BME280;60471;52.150;4.508;2023-07-30T06:35:46;100637.66;;;20.04;59.09
72465;BME280;60471;52.150;4.508;2023-07-30T06:38:12;100643.72;;;19.87;58.96
72465;BME280;60471;52.150;4.508;2023-07-30T06:40:38;100657.38;;;19.93;59.43
72465;BME280;60471;52.150;4.508;2023-07-30T06:43:04;100641.50;;;20.31;58.31
72465;BME280;60471;52.150;4.508;2023-07-30T06:45:31;100650.22;;;20.13;58.12
72465;BME280;60471;52.150;4.508;2023-07-30T06:47:57;100680.53;;;20.04;58.80
72465;BME280;60471;52.150;4.508;2023-07-30T06:50:23;100645.56;;;20.06;58.60
72465;BME280;60471;52.150;4.508;2023-07-30T06:52:49;100651.88;;;19.76;59.38
72465;BME280;60471;52.150;4.508;2023-07-30T06:55:15;100633.84;;;19.97;59.27
72465;BME280;60471;52.150;4.508;2023-07-30T06:57:42;100635.38;;;19.80;60.06
72465;BME280;60471;52.150;4.508;2023-07-30T07:00:08;100658.19;;;19.84;60.01
72465;BME280;60471;52.150;4.508;2023-07-30T07:02:35;100646.53;;;19.15;64.23
72465;BME280;60471;52.150;4.508;2023-07-30T07:05:02;100645.75;;;18.29;68.85
72465;BME280;60471;52.150;4.508;2023-07-30T07:07:29;100644.69;;;18.20;69.53
72465;BME280;60471;52.150;4.508;2023-07-30T07:09:56;100655.06;;;18.14;69.75
72465;BME280;60471;52.150;4.508;2023-07-30T07:12:22;100658.00;;;18.00;71.76
72465;BME280;60471;52.150;4.508;2023-07-30T07:14:48;100661.06;;;18.27;70.20
72465;BME280;60471;52.150;4.508;2023-07-30T07:17:15;100691.66;;;18.23;70.34
72465;BME280;60471;52.150;4.508;2023-07-30T07:19:41;100680.66;;;18.16;70.98
72465;BME280;60471;52.150;4.508;2023-07-30T07:22:07;100673.41;;;18.39;71.03
72465;BME280;60471;52.150;4.508;2023-07-30T07:24:33;100688.16;;;18.54;70.01
72465;BME280;60471;52.150;4.508;2023-07-30T07:26:59;100680.31;;;18.74;68.64
72465;BME280;60471;52.150;4.508;2023-07-30T07:29:26;100672.84;;;18.89;68.72
72465;BME280;60471;52.150;4.508;2023-07-30T07:31:52;100682.53;;;19.10;67.74
72465;BME280;60471;52.150;4.508;2023-07-30T07:34:19;100678.84;;;19.02;68.22
72465;BME280;60471;52.150;4.508;2023-07-30T07:36:45;100674.81;;;19.17;66.98
72465;BME280;60471;52.150;4.508;2023-07-30T07:39:12;100673.91;;;19.07;66.92
72465;BME280;60471;52.150;4.508;2023-07-30T07:41:38;100680.28;;;19.36;65.55
72465;BME280;60471;52.150;4.508;2023-07-30T07:44:04;100673.31;;;19.55;64.99
72465;BME280;60471;52.150;4.508;2023-07-30T07:46:30;100684.41;;;19.81;63.26
72465;BME280;60471;52.150;4.508;2023-07-30T07:48:57;100677.94;;;20.43;61.82
72465;BME280;60471;52.150;4.508;2023-07-30T07:51:23;100687.78;;;20.71;60.52
72465;BME280;60471;52.150;4.508;2023-07-30T07:53:49;100696.06;;;20.30;62.03
72465;BME280;60471;52.150;4.508;2023-07-30T07:56:18;100693.06;;;20.04;62.66
72465;BME280;60471;52.150;4.508;2023-07-30T07:58:44;100719.47;;;20.27;60.30
72465;BME280;60471;52.150;4.508;2023-07-30T08:01:10;100704.38;;;20.17;59.94
72465;BME280;60471;52.150;4.508;2023-07-30T08:03:36;100748.69;;;20.40;60.19
72465;BME280;60471;52.150;4.508;2023-07-30T08:06:02;100695.13;;;19.81;63.17
72465;BME280;60471;52.150;4.508;2023-07-30T08:08:29;100721.53;;;19.64;64.48
72465;BME280;60471;52.150;4.508;2023-07-30T08:10:55;100711.03;;;19.73;63.32
72465;BME280;60471;52.150;4.508;2023-07-30T08:13:21;100716.56;;;19.81;63.51
72465;BME280;60471;52.150;4.508;2023-07-30T08:15:47;100698.97;;;19.88;62.51
72465;BME280;60471;52.150;4.508;2023-07-30T08:18:14;100701.38;;;20.01;62.19
72465;BME280;60471;52.150;4.508;2023-07-30T08:20:40;100748.88;;;19.89;60.94
72465;BME280;60471;52.150;4.508;2023-07-30T08:23:06;100701.66;;;19.88;61.04
72465;BME280;60471;52.150;4.508;2023-07-30T08:25:32;100695.06;;;20.11;60.55
72465;BME280;60471;52.150;4.508;2023-07-30T08:27:59;100713.34;;;19.96;60.91
72465;BME280;60471;52.150;4.508;2023-07-30T08:30:25;100707.06;;;20.36;59.35
72465;BME280;60471;52.150;4.508;2023-07-30T08:32:51;100715.69;;;20.30;59.80
72465;BME280;60471;52.150;4.508;2023-07-30T08:35:17;100714.19;;;20.66;58.86
72465;BME280;60471;52.150;4.508;2023-07-30T08:37:44;100743.47;;;20.39;59.80
72465;BME280;60471;52.150;4.508;2023-07-30T08:40:11;100711.88;;;20.23;60.31
72465;BME280;60471;52.150;4.508;2023-07-30T08:42:37;100722.59;;;20.33;58.20
72465;BME280;60471;52.150;4.508;2023-07-30T08:45:06;100706.03;;;19.98;59.13
72465;BME280;60471;52.150;4.508;2023-07-30T08:47:35;100711.94;;;20.42;58.83
72465;BME280;60471;52.150;4.508;2023-07-30T08:50:01;100773.69;;;20.41;59.09
72465;BME280;60471;52.150;4.508;2023-07-30T08:52:29;100728.09;;;20.21;58.69
72465;BME280;60471;52.150;4.508;2023-07-30T08:54:57;100704.84;;;20.61;57.12
72465;BME280;60471;52.150;4.508;2023-07-30T08:57:28;100727.25;;;20.31;57.73
72465;BME280;60471;52.150;4.508;2023-07-30T09:00:04;100790.34;;;20.44;56.91
72465;BME280;60471;52.150;4.508;2023-07-30T09:02:39;100767.16;;;20.34;57.85
72465;BME280;60471;52.150;4.508;2023-07-30T09:05:10;100721.78;;;20.42;56.48
72465;BME280;60471;52.150;4.508;2023-07-30T09:07:36;100737.47;;;20.56;56.66
72465;BME280;60471;52.150;4.508;2023-07-30T09:10:03;100721.75;;;20.32;57.56
72465;BME280;60471;52.150;4.508;2023-07-30T09:12:33;100761.00;;;20.62;56.70
72465;BME280;60471;52.150;4.508;2023-07-30T09:15:04;100734.22;;;20.81;55.46
72465;BME280;60471;52.150;4.508;2023-07-30T09:17:35;100719.09;;;20.71;56.70
72465;BME280;60471;52.150;4.508;2023-07-30T09:20:03;100747.19;;;20.57;56.39
72465;BME280;60471;52.150;4.508;2023-07-30T09:22:33;100788.53;;;20.54;55.33
72465;BME280;60471;52.150;4.508;2023-07-30T09:25:07;100759.50;;;20.10;56.22
72465;BME280;60471;52.150;4.508;2023-07-30T09:27:34;100747.06;;;20.68;55.16
72465;BME280;60471;52.150;4.508;2023-07-30T09:30:02;100763.31;;;20.76;54.68
72465;BME280;60471;52.150;4.508;2023-07-30T09:32:34;100732.53;;;20.71;55.20
72465;BME280;60471;52.150;4.508;2023-07-30T09:35:08;100758.03;;;21.13;53.74
72465;BME280;60471;52.150;4.508;2023-07-30T09:37:37;100725.59;;;20.97;52.27
72465;BME280;60471;52.150;4.508;2023-07-30T09:40:10;100775.03;;;20.85;52.54
72465;BME280;60471;52.150;4.508;2023-07-30T09:42:42;100780.94;;;20.79;53.11
72465;BME280;60471;52.150;4.508;2023-07-30T09:45:24;100786.44;;;20.77;53.93
72465;BME280;60471;52.150;4.508;2023-07-30T09:47:52;100752.72;;;20.75;54.00
72465;BME280;60471;52.150;4.508;2023-07-30T09:50:22;100800.97;;;21.52;53.17
72465;BME280;60471;52.150;4.508;2023-07-30T09:52:49;100788.00;;;20.90;55.19
72465;BME280;60471;52.150;4.508;2023-07-30T09:55:16;100781.63;;;21.39;54.01
72465;BME280;60471;52.150;4.508;2023-07-30T09:57:44;100789.25;;;21.14;54.35
72465;BME280;60471;52.150;4.508;2023-07-30T10:00:11;100790.53;;;20.72;54.81
72465;BME280;60471;52.150;4.508;2023-07-30T10:02:39;100766.94;;;21.04;54.20
72465;BME280;60471;52.150;4.508;2023-07-30T10:05:19;100771.81;;;21.57;53.49
72465;BME280;60471;52.150;4.508;2023-07-30T10:08:00;100787.72;;;21.31;53.86
72465;BME280;60471;52.150;4.508;2023-07-30T10:10:31;100796.34;;;21.06;55.11
72465;BME280;60471;52.150;4.508;2023-07-30T10:13:00;100783.63;;;21.08;55.39
72465;BME280;60471;52.150;4.508;2023-07-30T10:15:38;100813.28;;;21.26;54.36
72465;BME280;60471;52.150;4.508;2023-07-30T10:18:04;100795.47;;;21.34;55.07
72465;BME280;60471;52.150;4.508;2023-07-30T10:20:31;100796.19;;;21.07;55.74
72465;BME280;60471;52.150;4.508;2023-07-30T10:22:59;100780.66;;;21.40;55.24
72465;BME280;60471;52.150;4.508;2023-07-30T10:27:55;100785.88;;;21.41;55.65
72465;BME280;60471;52.150;4.508;2023-07-30T10:30:30;100822.19;;;20.97;56.36
72465;BME280;60471;52.150;4.508;2023-07-30T10:33:00;100846.00;;;20.81;57.39
72465;BME280;60471;52.150;4.508;2023-07-30T10:35:46;100807.03;;;21.25;56.44
72465;BME280;60471;52.150;4.508;2023-07-30T10:38:28;100799.09;;;21.62;55.14
72465;BME280;60471;52.150;4.508;2023-07-30T10:41:14;100848.88;;;21.18;55.21
72465;BME280;60471;52.150;4.508;2023-07-30T10:43:50;100801.44;;;21.85;52.74
72465;BME280;60471;52.150;4.508;2023-07-30T10:46:18;100830.97;;;21.85;53.38
72465;BME280;60471;52.150;4.508;2023-07-30T10:48:47;100806.00;;;21.65;54.73
72465;BME280;60471;52.150;4.508;2023-07-30T10:51:16;100835.84;;;21.62;54.79
72465;BME280;60471;52.150;4.508;2023-07-30T10:53:45;100833.69;;;21.75;54.82
72465;BME280;60471;52.150;4.508;2023-07-30T10:56:13;100827.25;;;21.20;56.52
72465;BME280;60471;52.150;4.508;2023-07-30T10:58:42;100899.31;;;21.63;55.05
72465;BME280;60471;52.150;4.508;2023-07-30T11:01:10;100825.59;;;21.85;54.11
72465;BME280;60471;52.150;4.508;2023-07-30T11:03:36;100886.38;;;23.15;50.18
72465;BME280;60471;52.150;4.508;2023-07-30T11:06:04;100865.63;;;22.80;49.71
72465;BME280;60471;52.150;4.508;2023-07-30T11:08:42;100848.31;;;22.92;49.58
72465;BME280;60471;52.150;4.508;2023-07-30T11:11:10;100847.41;;;22.46;51.82
72465;BME280;60471;52.150;4.508;2023-07-30T11:13:41;100861.38;;;22.60;52.55
72465;BME280;60471;52.150;4.508;2023-07-30T11:16:10;100824.78;;;23.12;50.29
72465;BME280;60471;52.150;4.508;2023-07-30T11:18:37;100880.69;;;22.73;51.70
72465;BME280;60471;52.150;4.508;2023-07-30T11:21:14;100863.13;;;22.14;53.27
72465;BME280;60471;52.150;4.508;2023-07-30T11:23:45;100847.81;;;22.24;52.50
72465;BME280;60471;52.150;4.508;2023-07-30T11:26:17;100866.19;;;22.28;52.57
72465;BME280;60471;52.150;4.508;2023-07-30T11:28:45;100850.19;;;22.54;52.67
72465;BME280;60471;52.150;4.508;2023-07-30T11:31:13;100840.84;;;22.59;51.93
72465;BME280;60471;52.150;4.508;2023-07-30T11:33:44;100878.59;;;22.94;51.53
72465;BME280;60471;52.150;4.508;2023-07-30T11:36:16;100854.16;;;22.78;51.63
72465;BME280;60471;52.150;4.508;2023-07-30T11:38:46;100875.75;;;22.68;51.44
72465;BME280;60471;52.150;4.508;2023-07-30T11:41:13;100919.69;;;23.50;48.73
72465;BME280;60471;52.150;4.508;2023-07-30T11:43:42;100869.69;;;23.55;48.85
72465;BME280;60471;52.150;4.508;2023-07-30T11:46:16;100862.25;;;23.93;47.48
72465;BME280;60471;52.150;4.508;2023-07-30T11:48:50;100861.91;;;24.56;46.86
72465;BME280;60471;52.150;4.508;2023-07-30T11:51:27;100851.81;;;24.58;46.14
72465;BME280;60471;52.150;4.508;2023-07-30T11:53:59;100847.72;;;26.33;44.12
72465;BME280;60471;52.150;4.508;2023-07-30T11:56:29;100889.78;;;25.64;43.26
72465;BME280;60471;52.150;4.508;2023-07-30T11:59:06;100855.53;;;24.65;45.16
72465;BME280;60471;52.150;4.508;2023-07-30T12:01:35;100872.03;;;25.21;44.73
72465;BME280;60471;52.150;4.508;2023-07-30T12:04:04;100845.78;;;26.11;42.22
72465;BME280;60471;52.150;4.508;2023-07-30T12:06:41;100885.59;;;26.41;42.50
72465;BME280;60471;52.150;4.508;2023-07-30T12:09:13;100884.78;;;26.24;42.03
72465;BME280;60471;52.150;4.508;2023-07-30T12:11:52;100849.56;;;26.33;41.84
72465;BME280;60471;52.150;4.508;2023-07-30T12:14:25;100871.50;;;25.98;41.48
72465;BME280;60471;52.150;4.508;2023-07-30T12:16:56;100847.38;;;24.49;44.73
72465;BME280;60471;52.150;4.508;2023-07-30T12:19:23;100873.38;;;22.93;49.07
72465;BME280;60471;52.150;4.508;2023-07-30T12:21:49;100890.16;;;24.36;46.12
72465;BME280;60471;52.150;4.508;2023-07-30T12:24:16;100871.78;;;26.20;41.96
72465;BME280;60471;52.150;4.508;2023-07-30T12:26:42;100862.09;;;26.25;41.08
72465;BME280;60471;52.150;4.508;2023-07-30T12:29:08;100874.88;;;24.44;44.62
72465;BME280;60471;52.150;4.508;2023-07-30T12:31:34;100859.13;;;24.82;44.06
72465;BME280;60471;52.150;4.508;2023-07-30T12:34:01;100870.13;;;24.97;42.63
72465;BME280;60471;52.150;4.508;2023-07-30T12:36:27;100895.28;;;24.97;44.04
72465;BME280;60471;52.150;4.508;2023-07-30T12:38:53;100905.38;;;23.93;45.87
72465;BME280;60471;52.150;4.508;2023-07-30T12:41:20;100867.09;;;23.63;47.63
72465;BME280;60471;52.150;4.508;2023-07-30T12:43:53;100884.34;;;23.53;48.11
72465;BME280;60471;52.150;4.508;2023-07-30T12:46:20;100864.84;;;24.79;44.91
72465;BME280;60471;52.150;4.508;2023-07-30T12:48:47;100874.41;;;25.48;43.05
72465;BME280;60471;52.150;4.508;2023-07-30T12:51:13;100874.22;;;25.09;44.14
72465;BME280;60471;52.150;4.508;2023-07-30T12:53:40;100881.03;;;22.60;49.79
72465;BME280;60471;52.150;4.508;2023-07-30T12:56:06;100858.34;;;23.61;48.06